Hav Nordic — OZ2119 — position and weather

sailwx.info

Track history (hours):
 
Tides and Currents Weather Stations Pressure Air Temp Water Temp Dewpoint Dewpoint Depression Visibility Wind Speed Wind Dir Waves Ship Positions

Hav Nordic

Last reported at 2017-Apr-28 04:46 UTC. Time now 2017-Apr-29 01:40 UTC.
Position N 60°47' E 004°18'.

Length 75 m; draft 6 m.

Type: Cargo ship. MMSI: 231812000.

Date/timePositionNaut miles runAvg speedWind from/ knotsBaromVisibWave heightAir tempDewpointWater temp
2017-Apr-28 04:46N 60°47' E 004°18'2 8.9
2017-Apr-28 04:30N 60°47' E 004°23'4 8.8
2017-Apr-28 03:59N 60°46' E 004°32'5 9.2
2017-Apr-28 03:30N 60°45' E 004°41'5 9.1
2017-Apr-28 03:00N 60°43' E 004°49'5 9.1
2017-Apr-28 02:30N 60°39' E 004°54'4 8.0
2017-Apr-28 01:59N 60°35' E 004°59'2 4.7
2017-Apr-28 01:30N 60°33' E 004°59'0 0.0
2017-Apr-28 01:00N 60°33' E 004°59'0 0.0
2017-Apr-28 00:30N 60°33' E 004°59'0 0.0
2017-Apr-28 00:00N 60°33' E 004°59'0 0.0
2017-Apr-27 23:30N 60°33' E 004°59'0 0.0
2017-Apr-27 23:00N 60°33' E 004°59'0 0.0
2017-Apr-27 22:30N 60°33' E 004°59'0 0.0
2017-Apr-27 22:00N 60°33' E 004°59'0 0.0
2017-Apr-27 21:30N 60°33' E 004°59'0 0.0
2017-Apr-27 21:00N 60°33' E 004°59'0 0.0
2017-Apr-27 20:30N 60°33' E 004°59'0 0.0
2017-Apr-27 20:00N 60°33' E 004°59'0 0.0
2017-Apr-27 19:30N 60°33' E 004°59'0 0.0
2017-Apr-27 19:00N 60°33' E 004°59'0 0.0
2017-Apr-27 18:30N 60°33' E 004°59'0 0.0
2017-Apr-27 18:00N 60°33' E 004°59'0 0.0
2017-Apr-27 17:30N 60°33' E 004°59'0 0.1
2017-Apr-27 17:00N 60°33' E 004°59'2 4.0
2017-Apr-27 16:30N 60°35' E 004°59'3 5.5
2017-Apr-27 16:00N 60°37' E 004°56'2 4.0
2017-Apr-27 15:30N 60°39' E 004°54'2 4.3
2017-Apr-27 15:00N 60°41' E 004°51'7 7.1
2017-Apr-27 14:00N 60°47' E 004°45'5 9.9
2017-Apr-27 13:30N 60°51' E 004°39'5 9.3
2017-Apr-27 13:00N 60°53' E 004°31'510.0
2017-Apr-27 12:30N 60°57' E 004°24'510.8
2017-Apr-27 12:00N 61°03' E 004°25'510.2
2017-Apr-27 11:30N 61°08' E 004°25'510.3
2017-Apr-27 11:00N 61°13' E 004°25'510.3
2017-Apr-27 10:30N 61°18' E 004°25'510.2
2017-Apr-27 10:00N 61°23' E 004°25'510.1
2017-Apr-27 09:30N 61°28' E 004°25'5 9.9
2017-Apr-27 09:00N 61°33' E 004°24'510.1
2017-Apr-27 08:30N 61°38' E 004°24'5 9.8
2017-Apr-27 08:00N 61°43' E 004°24'5 9.7
2017-Apr-27 07:30N 61°48' E 004°24'5 9.6
2017-Apr-27 07:00N 61°52' E 004°29'5 9.6
2017-Apr-27 06:30N 61°56' E 004°34'5 9.6
2017-Apr-27 06:00N 62°01' E 004°39'5 9.8
2017-Apr-27 05:30N 62°05' E 004°44'5 9.9
2017-Apr-27 05:00N 62°10' E 004°48'5 9.8
2017-Apr-27 04:30N 62°14' E 004°54'5 9.4
2017-Apr-27 04:00N 62°18' E 004°59'5 9.3
2017-Apr-27 03:30N 62°21' E 005°06'5 9.1
2017-Apr-27 03:00N 62°25' E 005°12'4 8.7
2017-Apr-27 02:30N 62°28' E 005°18'4 8.8
2017-Apr-27 02:00N 62°31' E 005°24'4 8.7
2017-Apr-27 01:30N 62°35' E 005°31'4 8.9
2017-Apr-27 01:00N 62°38' E 005°37'4 8.6
2017-Apr-27 00:30N 62°41' E 005°44'4 8.5
2017-Apr-27 00:00N 62°44' E 005°49'5 9.0
2017-Apr-26 23:29N 62°48' E 005°56'5 9.4
2017-Apr-26 23:00N 62°50' E 006°05'5 9.6
2017-Apr-26 22:30N 62°53' E 006°13'5 9.4
2017-Apr-26 22:00N 62°56' E 006°21'5 9.4
2017-Apr-26 21:29N 62°59' E 006°30'5 9.4
2017-Apr-26 21:00N 63°01' E 006°38'5 9.3
2017-Apr-26 20:30N 63°04' E 006°47'4 9.0
2017-Apr-26 20:00N 63°06' E 006°55'4 8.0
2017-Apr-26 19:30N 63°09' E 007°02'4 8.6
2017-Apr-26 19:00N 63°11' E 007°10'4 8.2
2017-Apr-26 18:30N 63°14' E 007°17'4 7.8
2017-Apr-26 18:00N 63°15' E 007°26'4 8.4
2017-Apr-26 17:30N 63°15' E 007°35'4 8.1
2017-Apr-26 17:00N 63°13' E 007°44'4 7.8
2017-Apr-26 16:30N 63°09' E 007°43'4 8.5
2017-Apr-26 16:00N 63°05' E 007°41'2 4.0
2017-Apr-26 15:30N 63°03' E 007°39'0 0.0
2017-Apr-26 15:00N 63°03' E 007°39'0 0.0
2017-Apr-26 14:30N 63°03' E 007°39'0 0.0
2017-Apr-26 13:30N 63°03' E 007°39'0 0.0
2017-Apr-26 13:00N 63°03' E 007°39'0 0.0
2017-Apr-26 12:30N 63°03' E 007°39'0 0.0
2017-Apr-26 12:00N 63°03' E 007°39'0 0.0
2017-Apr-26 11:30N 63°03' E 007°39'0 0.0
2017-Apr-26 11:00N 63°03' E 007°39'0 0.0
2017-Apr-26 10:30N 63°03' E 007°39'0 0.0
2017-Apr-26 10:00N 63°03' E 007°39'0 0.0
2017-Apr-26 09:30N 63°03' E 007°39'0 0.0
2017-Apr-26 09:00N 63°03' E 007°39'0 0.0
2017-Apr-26 08:30N 63°03' E 007°39'0 0.0
2017-Apr-26 08:00N 63°03' E 007°39'0 0.0
2017-Apr-26 07:30N 63°03' E 007°39'0 0.0
2017-Apr-26 07:00N 63°03' E 007°39'0 0.0
2017-Apr-26 06:30N 63°03' E 007°39'0 0.0
2017-Apr-26 06:00N 63°03' E 007°39'0 0.0
2017-Apr-26 05:30N 63°03' E 007°39'0 0.0
2017-Apr-26 05:00N 63°03' E 007°39'0 0.0
2017-Apr-26 04:30N 63°03' E 007°39'0 0.0
2017-Apr-26 04:00N 63°03' E 007°39'0 0.0
2017-Apr-26 03:30N 63°03' E 007°39'0 0.0
2017-Apr-26 03:00N 63°03' E 007°39'0 0.0
2017-Apr-26 02:30N 63°03' E 007°39'0 0.0
2017-Apr-26 02:00N 63°03' E 007°39'0 0.0
2017-Apr-26 01:30N 63°03' E 007°39'0 0.0
2017-Apr-26 01:00N 63°03' E 007°39'0 0.0
2017-Apr-26 00:30N 63°03' E 007°39'0 0.0
2017-Apr-26 00:00N 63°03' E 007°39'0 0.0
2017-Apr-25 23:30N 63°03' E 007°39'0 0.0
2017-Apr-25 23:00N 63°03' E 007°39'0 0.0
2017-Apr-25 22:30N 63°03' E 007°39'0 0.0
2017-Apr-25 22:00N 63°03' E 007°39'0 0.0
2017-Apr-25 21:30N 63°03' E 007°39'0 0.0
2017-Apr-25 21:00N 63°03' E 007°39'0 0.0
2017-Apr-25 20:30N 63°03' E 007°39'0 0.0
2017-Apr-25 20:00N 63°03' E 007°39'0 0.0
2017-Apr-25 19:30N 63°03' E 007°39'0 0.0
2017-Apr-25 19:00N 63°03' E 007°39'0 0.0
2017-Apr-25 18:30N 63°03' E 007°39'0 0.0
2017-Apr-25 18:00N 63°03' E 007°39'0 0.0
2017-Apr-25 17:30N 63°03' E 007°39'0 0.0
2017-Apr-25 17:00N 63°03' E 007°39'0 0.0
2017-Apr-25 16:30N 63°03' E 007°39'0 0.0
2017-Apr-25 16:00N 63°03' E 007°39'0 0.0
2017-Apr-25 15:30N 63°03' E 007°39'0 0.0
2017-Apr-25 15:00N 63°03' E 007°40'5 4.6
2017-Apr-25 14:00N 63°08' E 007°41'5 9.4
2017-Apr-25 13:30N 63°12' E 007°45'4 8.9
2017-Apr-25 13:00N 63°15' E 007°37'5 9.0
2017-Apr-25 12:30N 63°15' E 007°27'5 9.0
2017-Apr-25 12:00N 63°15' E 007°17'4 8.8
2017-Apr-25 11:30N 63°15' E 007°07'5 9.2
2017-Apr-25 11:00N 63°15' E 006°57'4 9.0
2017-Apr-25 10:30N 63°15' E 006°47'  
Track history (hours):
 
Tides and Currents Weather Stations Pressure Air Temp Water Temp Dewpoint Dewpoint Depression Visibility Wind Speed Wind Dir Waves Ship Positions

Hav Nordic

Last reported at 2017-Apr-28 04:46 UTC. Time now 2017-Apr-29 01:40 UTC.
Position N 60°47' E 004°18'.

Length 75 m; draft 6 m.

Type: Cargo ship. MMSI: 231812000.

Date/timePositionNaut miles runAvg speedWind from/ knotsBaromVisibWave heightAir tempDewpointWater temp
2017-Apr-28 04:46N 60°47' E 004°18'2 8.9
2017-Apr-28 04:30N 60°47' E 004°23'4 8.8
2017-Apr-28 03:59N 60°46' E 004°32'5 9.2
2017-Apr-28 03:30N 60°45' E 004°41'5 9.1
2017-Apr-28 03:00N 60°43' E 004°49'5 9.1
2017-Apr-28 02:30N 60°39' E 004°54'4 8.0
2017-Apr-28 01:59N 60°35' E 004°59'2 4.7
2017-Apr-28 01:30N 60°33' E 004°59'0 0.0
2017-Apr-28 01:00N 60°33' E 004°59'0 0.0
2017-Apr-28 00:30N 60°33' E 004°59'0 0.0
2017-Apr-28 00:00N 60°33' E 004°59'0 0.0
2017-Apr-27 23:30N 60°33' E 004°59'0 0.0
2017-Apr-27 23:00N 60°33' E 004°59'0 0.0
2017-Apr-27 22:30N 60°33' E 004°59'0 0.0
2017-Apr-27 22:00N 60°33' E 004°59'0 0.0
2017-Apr-27 21:30N 60°33' E 004°59'0 0.0
2017-Apr-27 21:00N 60°33' E 004°59'0 0.0
2017-Apr-27 20:30N 60°33' E 004°59'0 0.0
2017-Apr-27 20:00N 60°33' E 004°59'0 0.0
2017-Apr-27 19:30N 60°33' E 004°59'0 0.0
2017-Apr-27 19:00N 60°33' E 004°59'0 0.0
2017-Apr-27 18:30N 60°33' E 004°59'0 0.0
2017-Apr-27 18:00N 60°33' E 004°59'0 0.0
2017-Apr-27 17:30N 60°33' E 004°59'0 0.1
2017-Apr-27 17:00N 60°33' E 004°59'2 4.0
2017-Apr-27 16:30N 60°35' E 004°59'3 5.5
2017-Apr-27 16:00N 60°37' E 004°56'2 4.0
2017-Apr-27 15:30N 60°39' E 004°54'2 4.3
2017-Apr-27 15:00N 60°41' E 004°51'7 7.1
2017-Apr-27 14:00N 60°47' E 004°45'5 9.9
2017-Apr-27 13:30N 60°51' E 004°39'5 9.3
2017-Apr-27 13:00N 60°53' E 004°31'510.0
2017-Apr-27 12:30N 60°57' E 004°24'510.8
2017-Apr-27 12:00N 61°03' E 004°25'510.2
2017-Apr-27 11:30N 61°08' E 004°25'510.3
2017-Apr-27 11:00N 61°13' E 004°25'510.3
2017-Apr-27 10:30N 61°18' E 004°25'510.2
2017-Apr-27 10:00N 61°23' E 004°25'510.1
2017-Apr-27 09:30N 61°28' E 004°25'5 9.9
2017-Apr-27 09:00N 61°33' E 004°24'510.1
2017-Apr-27 08:30N 61°38' E 004°24'5 9.8
2017-Apr-27 08:00N 61°43' E 004°24'5 9.7
2017-Apr-27 07:30N 61°48' E 004°24'5 9.6
2017-Apr-27 07:00N 61°52' E 004°29'5 9.6
2017-Apr-27 06:30N 61°56' E 004°34'5 9.6
2017-Apr-27 06:00N 62°01' E 004°39'5 9.8
2017-Apr-27 05:30N 62°05' E 004°44'5 9.9
2017-Apr-27 05:00N 62°10' E 004°48'5 9.8
2017-Apr-27 04:30N 62°14' E 004°54'5 9.4
2017-Apr-27 04:00N 62°18' E 004°59'5 9.3
2017-Apr-27 03:30N 62°21' E 005°06'5 9.1
2017-Apr-27 03:00N 62°25' E 005°12'4 8.7
2017-Apr-27 02:30N 62°28' E 005°18'4 8.8
2017-Apr-27 02:00N 62°31' E 005°24'4 8.7
2017-Apr-27 01:30N 62°35' E 005°31'4 8.9
2017-Apr-27 01:00N 62°38' E 005°37'4 8.6
2017-Apr-27 00:30N 62°41' E 005°44'4 8.5
2017-Apr-27 00:00N 62°44' E 005°49'5 9.0
2017-Apr-26 23:29N 62°48' E 005°56'5 9.4
2017-Apr-26 23:00N 62°50' E 006°05'5 9.6
2017-Apr-26 22:30N 62°53' E 006°13'5 9.4
2017-Apr-26 22:00N 62°56' E 006°21'5 9.4
2017-Apr-26 21:29N 62°59' E 006°30'5 9.4
2017-Apr-26 21:00N 63°01' E 006°38'5 9.3
2017-Apr-26 20:30N 63°04' E 006°47'4 9.0
2017-Apr-26 20:00N 63°06' E 006°55'4 8.0
2017-Apr-26 19:30N 63°09' E 007°02'4 8.6
2017-Apr-26 19:00N 63°11' E 007°10'4 8.2
2017-Apr-26 18:30N 63°14' E 007°17'4 7.8
2017-Apr-26 18:00N 63°15' E 007°26'4 8.4
2017-Apr-26 17:30N 63°15' E 007°35'4 8.1
2017-Apr-26 17:00N 63°13' E 007°44'4 7.8
2017-Apr-26 16:30N 63°09' E 007°43'4 8.5
2017-Apr-26 16:00N 63°05' E 007°41'2 4.0
2017-Apr-26 15:30N 63°03' E 007°39'0 0.0
2017-Apr-26 15:00N 63°03' E 007°39'0 0.0
2017-Apr-26 14:30N 63°03' E 007°39'0 0.0
2017-Apr-26 13:30N 63°03' E 007°39'0 0.0
2017-Apr-26 13:00N 63°03' E 007°39'0 0.0
2017-Apr-26 12:30N 63°03' E 007°39'0 0.0
2017-Apr-26 12:00N 63°03' E 007°39'0 0.0
2017-Apr-26 11:30N 63°03' E 007°39'0 0.0
2017-Apr-26 11:00N 63°03' E 007°39'0 0.0
2017-Apr-26 10:30N 63°03' E 007°39'0 0.0
2017-Apr-26 10:00N 63°03' E 007°39'0 0.0
2017-Apr-26 09:30N 63°03' E 007°39'0 0.0
2017-Apr-26 09:00N 63°03' E 007°39'0 0.0
2017-Apr-26 08:30N 63°03' E 007°39'0 0.0
2017-Apr-26 08:00N 63°03' E 007°39'0 0.0
2017-Apr-26 07:30N 63°03' E 007°39'0 0.0
2017-Apr-26 07:00N 63°03' E 007°39'0 0.0
2017-Apr-26 06:30N 63°03' E 007°39'0 0.0
2017-Apr-26 06:00N 63°03' E 007°39'0 0.0
2017-Apr-26 05:30N 63°03' E 007°39'0 0.0
2017-Apr-26 05:00N 63°03' E 007°39'0 0.0
2017-Apr-26 04:30N 63°03' E 007°39'0 0.0
2017-Apr-26 04:00N 63°03' E 007°39'0 0.0
2017-Apr-26 03:30N 63°03' E 007°39'0 0.0
2017-Apr-26 03:00N 63°03' E 007°39'0 0.0
2017-Apr-26 02:30N 63°03' E 007°39'0 0.0
2017-Apr-26 02:00N 63°03' E 007°39'0 0.0
2017-Apr-26 01:30N 63°03' E 007°39'0 0.0
2017-Apr-26 01:00N 63°03' E 007°39'0 0.0
2017-Apr-26 00:30N 63°03' E 007°39'0 0.0
2017-Apr-26 00:00N 63°03' E 007°39'0 0.0
2017-Apr-25 23:30N 63°03' E 007°39'0 0.0
2017-Apr-25 23:00N 63°03' E 007°39'0 0.0
2017-Apr-25 22:30N 63°03' E 007°39'0 0.0
2017-Apr-25 22:00N 63°03' E 007°39'0 0.0
2017-Apr-25 21:30N 63°03' E 007°39'0 0.0
2017-Apr-25 21:00N 63°03' E 007°39'0 0.0
2017-Apr-25 20:30N 63°03' E 007°39'0 0.0
2017-Apr-25 20:00N 63°03' E 007°39'0 0.0
2017-Apr-25 19:30N 63°03' E 007°39'0 0.0
2017-Apr-25 19:00N 63°03' E 007°39'0 0.0
2017-Apr-25 18:30N 63°03' E 007°39'0 0.0
2017-Apr-25 18:00N 63°03' E 007°39'0 0.0
2017-Apr-25 17:30N 63°03' E 007°39'0 0.0
2017-Apr-25 17:00N 63°03' E 007°39'0 0.0
2017-Apr-25 16:30N 63°03' E 007°39'0 0.0
2017-Apr-25 16:00N 63°03' E 007°39'0 0.0
2017-Apr-25 15:30N 63°03' E 007°39'0 0.0
2017-Apr-25 15:00N 63°03' E 007°40'5 4.6
2017-Apr-25 14:00N 63°08' E 007°41'5 9.4
2017-Apr-25 13:30N 63°12' E 007°45'4 8.9
2017-Apr-25 13:00N 63°15' E 007°37'5 9.0
2017-Apr-25 12:30N 63°15' E 007°27'5 9.0
2017-Apr-25 12:00N 63°15' E 007°17'4 8.8
2017-Apr-25 11:30N 63°15' E 007°07'5 9.2
2017-Apr-25 11:00N 63°15' E 006°57'4 9.0
2017-Apr-25 10:30N 63°15' E 006°47'  

Dump ship's entire track history